createdAt,value
2023-02-16T00:00:54.369Z,48.00
2023-02-16T00:03:22.491Z,48.25
2023-02-16T00:05:49.657Z,47.00
2023-02-16T00:08:16.232Z,43.40
2023-02-16T00:11:03.316Z,46.92
2023-02-16T00:13:45.157Z,47.33
2023-02-16T00:16:13.907Z,50.05
2023-02-16T00:18:40.609Z,48.47
2023-02-16T00:21:07.179Z,47.63
2023-02-16T00:23:33.853Z,43.15
2023-02-16T00:26:00.580Z,47.42
2023-02-16T00:28:27.215Z,44.30
2023-02-16T00:30:53.995Z,44.15
2023-02-16T00:33:21.267Z,45.97
2023-02-16T00:35:48.326Z,43.83
2023-02-16T00:38:16.217Z,42.35
2023-02-16T00:40:43.174Z,44.72
2023-02-16T00:43:24.154Z,44.08
2023-02-16T00:45:50.878Z,45.88
2023-02-16T00:48:17.466Z,43.75
2023-02-16T00:50:44.228Z,42.97
2023-02-16T00:53:11.719Z,41.85
2023-02-16T00:55:39.689Z,42.08
2023-02-16T00:58:21.176Z,41.72
2023-02-16T01:00:49.651Z,42.20
2023-02-16T01:03:17.589Z,42.38
2023-02-16T01:05:44.536Z,40.72
2023-02-16T01:08:30.486Z,45.35
2023-02-16T01:11:12.772Z,42.90
2023-02-16T01:13:47.392Z,42.85
2023-02-16T01:16:16.077Z,49.67
2023-02-16T01:18:42.626Z,43.78
2023-02-16T01:21:10.048Z,43.63
2023-02-16T01:23:37.231Z,41.72
2023-02-16T01:26:04.435Z,41.45
2023-02-16T01:28:34.135Z,44.33
2023-02-16T01:31:00.894Z,45.22
2023-02-16T01:33:27.440Z,42.03
2023-02-16T01:35:55.379Z,41.80
2023-02-16T01:38:23.581Z,41.42
2023-02-16T01:41:22.709Z,44.45
2023-02-16T01:44:01.601Z,43.75
2023-02-16T01:46:34.363Z,44.45
2023-02-16T01:49:01.011Z,43.70
2023-02-16T01:51:45.254Z,42.58
2023-02-16T01:54:11.958Z,41.55
2023-02-16T01:56:41.788Z,44.25
2023-02-16T01:59:19.660Z,44.65
2023-02-16T02:01:53.720Z,41.67
2023-02-16T02:04:42.181Z,49.63
2023-02-16T02:07:11.396Z,47.38
2023-02-16T02:09:40.842Z,43.83
2023-02-16T02:12:11.359Z,41.50
2023-02-16T02:14:39.304Z,41.55
2023-02-16T02:17:09.652Z,42.70
2023-02-16T02:19:41.618Z,43.45
2023-02-16T02:22:39.089Z,46.25
2023-02-16T02:25:36.335Z,43.83
2023-02-16T02:28:19.456Z,45.45
2023-02-16T02:30:49.685Z,43.38
2023-02-16T02:33:16.447Z,43.00
2023-02-16T02:35:49.579Z,45.08
2023-02-16T02:38:30.853Z,41.90
2023-02-16T02:41:10.914Z,42.50
2023-02-16T02:43:45.608Z,44.65
2023-02-16T02:46:25.571Z,44.80
2023-02-16T02:48:52.545Z,45.60
2023-02-16T02:51:29.844Z,44.05
2023-02-16T02:54:35.203Z,40.00
2023-02-16T02:57:35.374Z,40.67
2023-02-16T03:00:21.329Z,42.88
2023-02-16T03:02:50.144Z,44.10
2023-02-16T03:05:18.797Z,42.00
2023-02-16T03:07:46.749Z,40.63
2023-02-16T03:10:34.943Z,45.17
2023-02-16T03:13:02.268Z,47.70
2023-02-16T03:15:30.274Z,41.25
2023-02-16T03:18:16.491Z,42.45
2023-02-16T03:21:02.898Z,43.38
2023-02-16T03:23:48.408Z,44.22
2023-02-16T03:29:37.241Z,42.80
2023-02-16T03:32:04.248Z,44.33
2023-02-16T03:34:30.948Z,41.10
2023-02-16T03:36:59.155Z,43.92
2023-02-16T03:39:26.611Z,40.78
2023-02-16T03:41:54.209Z,40.30
2023-02-16T03:44:21.224Z,41.92
2023-02-16T03:46:49.661Z,43.88
2023-02-16T03:49:16.799Z,46.13
2023-02-16T03:51:43.614Z,43.33
2023-02-16T03:54:10.336Z,44.55
2023-02-16T03:56:37.100Z,43.30
2023-02-16T03:59:03.697Z,44.00
2023-02-16T04:01:30.314Z,39.38
2023-02-16T04:03:57.088Z,45.00
2023-02-16T04:06:23.757Z,49.88
2023-02-16T04:08:50.960Z,41.75
2023-02-16T04:11:35.924Z,43.20
2023-02-16T04:14:05.081Z,44.05
2023-02-16T04:16:31.886Z,41.03
2023-02-16T04:18:58.726Z,42.90
2023-02-16T04:21:25.303Z,47.65
2023-02-16T04:23:52.050Z,46.13
2023-02-16T04:26:18.721Z,42.53
2023-02-16T04:28:45.288Z,43.60
2023-02-16T04:31:12.231Z,41.63
2023-02-16T04:33:38.802Z,42.17
2023-02-16T04:36:05.542Z,44.50
2023-02-16T04:38:32.473Z,41.95
2023-02-16T04:40:58.969Z,41.50
2023-02-16T04:43:25.617Z,43.78
2023-02-16T04:45:52.381Z,42.10
2023-02-16T04:48:19.268Z,45.95
2023-02-16T04:50:45.788Z,42.08
2023-02-16T04:53:12.514Z,41.72
2023-02-16T04:55:39.211Z,44.78
2023-02-16T04:58:05.758Z,47.75
2023-02-16T05:00:36.605Z,44.00
2023-02-16T05:03:03.377Z,45.08
2023-02-16T05:05:31.732Z,46.15
2023-02-16T05:07:58.476Z,45.95
2023-02-16T05:10:25.067Z,45.88
2023-02-16T05:13:10.412Z,45.45
2023-02-16T05:15:37.161Z,39.38
2023-02-16T05:18:03.732Z,40.60
2023-02-16T05:20:48.989Z,39.60
2023-02-16T05:23:16.029Z,44.25
2023-02-16T05:25:42.573Z,42.55
2023-02-16T05:28:09.536Z,43.10
2023-02-16T05:30:36.188Z,42.67
2023-02-16T05:33:03.115Z,40.58
2023-02-16T05:35:29.701Z,42.45
2023-02-16T05:37:56.302Z,42.30
2023-02-16T05:40:22.882Z,41.22
2023-02-16T05:42:52.993Z,42.45
2023-02-16T05:45:19.656Z,41.95
2023-02-16T05:47:47.269Z,44.75
2023-02-16T05:50:13.824Z,45.50
2023-02-16T05:52:40.508Z,45.50
2023-02-16T05:55:07.135Z,45.75
2023-02-16T05:57:35.743Z,42.92
2023-02-16T06:00:04.004Z,44.78
2023-02-16T06:02:31.089Z,46.75
2023-02-16T06:04:57.823Z,43.30
2023-02-16T06:07:24.445Z,44.70
2023-02-16T06:09:51.077Z,41.45
2023-02-16T06:12:21.625Z,42.75
2023-02-16T06:14:48.363Z,44.38
2023-02-16T06:17:14.965Z,40.38
2023-02-16T06:19:41.584Z,44.55
2023-02-16T06:22:08.177Z,40.70
2023-02-16T06:24:35.377Z,40.63
2023-02-16T06:27:02.625Z,41.85
2023-02-16T06:29:29.611Z,45.47
2023-02-16T06:31:56.287Z,45.28
2023-02-16T06:34:23.218Z,45.47
2023-02-16T06:36:49.780Z,46.00
2023-02-16T06:39:16.329Z,45.25
2023-02-16T06:41:42.788Z,43.33
2023-02-16T06:44:12.522Z,52.63
2023-02-16T06:46:39.903Z,46.67
2023-02-16T06:49:06.556Z,45.95
2023-02-16T06:51:33.630Z,44.50
2023-02-16T06:54:02.210Z,43.95
2023-02-16T06:56:28.909Z,43.10
2023-02-16T06:58:55.484Z,44.58
2023-02-16T07:01:26.141Z,41.50
2023-02-16T07:03:53.721Z,43.50
2023-02-16T07:06:20.444Z,45.92
2023-02-16T07:08:47.141Z,45.13
2023-02-16T07:11:13.721Z,45.60
2023-02-16T07:13:40.446Z,46.28
2023-02-16T07:16:07.354Z,42.53
2023-02-16T07:18:34.262Z,43.45
2023-02-16T07:21:00.986Z,46.83
2023-02-16T07:23:27.935Z,44.92
2023-02-16T07:25:54.419Z,42.85
2023-02-16T07:28:20.971Z,41.53
2023-02-16T07:30:47.526Z,43.58
2023-02-16T07:33:15.044Z,41.33
2023-02-16T07:35:41.629Z,43.20
2023-02-16T07:38:08.411Z,44.28
2023-02-16T07:40:35.458Z,44.33
2023-02-16T07:43:02.922Z,40.67
2023-02-16T07:45:30.201Z,41.60
2023-02-16T07:47:56.864Z,44.25
2023-02-16T07:50:23.385Z,43.42
2023-02-16T07:52:49.985Z,41.08
2023-02-16T07:55:16.546Z,41.40
2023-02-16T07:57:43.357Z,44.40
2023-02-16T08:00:10.490Z,44.92
2023-02-16T08:02:40.403Z,44.45
2023-02-16T08:05:07.194Z,44.13
2023-02-16T08:07:33.664Z,48.15
2023-02-16T08:10:01.167Z,42.53
2023-02-16T08:12:27.809Z,45.60
2023-02-16T08:14:54.390Z,48.67
2023-02-16T08:17:20.997Z,43.92
2023-02-16T08:19:47.620Z,45.72
2023-02-16T08:22:17.745Z,44.38
2023-02-16T08:24:44.306Z,43.85
2023-02-16T08:27:10.927Z,43.83
2023-02-16T08:29:37.775Z,40.03
2023-02-16T08:32:07.773Z,39.75
2023-02-16T08:34:35.126Z,42.83
2023-02-16T08:37:05.236Z,40.78
2023-02-16T08:39:33.619Z,41.25
2023-02-16T08:42:01.566Z,38.92
2023-02-16T08:44:29.255Z,45.25
2023-02-16T08:46:56.947Z,42.30
2023-02-16T08:49:24.119Z,39.72
2023-02-16T08:51:54.941Z,40.15
2023-02-16T08:54:24.519Z,41.90
2023-02-16T08:56:51.290Z,40.38
2023-02-16T08:59:19.436Z,42.45
2023-02-16T09:01:46.376Z,41.90
2023-02-16T09:04:13.457Z,42.58
2023-02-16T09:06:41.596Z,49.38
2023-02-16T09:09:08.948Z,49.75
2023-02-16T09:11:36.158Z,43.85
2023-02-16T09:14:03.917Z,39.60
2023-02-16T09:16:33.964Z,41.25
2023-02-16T09:19:01.849Z,39.90
2023-02-16T09:21:32.447Z,42.35
2023-02-16T09:24:00.795Z,42.17
2023-02-16T09:26:29.250Z,43.95
2023-02-16T09:28:58.070Z,40.33
2023-02-16T09:31:27.808Z,38.78
2023-02-16T09:34:04.835Z,40.10
2023-02-16T09:36:34.064Z,42.47
2023-02-16T09:39:02.552Z,47.05
2023-02-16T09:41:35.429Z,46.80
2023-02-16T09:44:17.069Z,40.40
2023-02-16T09:46:43.733Z,44.88
2023-02-16T09:49:22.326Z,43.40
2023-02-16T09:51:49.950Z,43.22
2023-02-16T09:54:35.386Z,42.45
2023-02-16T09:57:08.748Z,42.53
2023-02-16T09:59:45.245Z,43.85
2023-02-16T10:02:21.207Z,46.50
2023-02-16T10:04:47.822Z,43.13
2023-02-16T10:07:31.956Z,41.55
2023-02-16T10:10:01.069Z,44.97
2023-02-16T10:12:35.600Z,45.95
2023-02-16T10:15:28.285Z,41.15
2023-02-16T10:18:07.534Z,42.42
2023-02-16T10:20:42.648Z,40.55
2023-02-16T10:25:48.773Z,41.97
2023-02-16T10:28:27.603Z,40.60
2023-02-16T10:30:58.195Z,39.15
2023-02-16T10:33:34.179Z,41.47
2023-02-16T10:36:01.845Z,39.33
2023-02-16T10:38:28.381Z,41.42
2023-02-16T10:41:01.523Z,40.50
2023-02-16T10:43:54.469Z,37.17
2023-02-16T10:46:25.932Z,39.65
2023-02-16T10:48:53.836Z,38.78
2023-02-16T10:51:21.551Z,38.95
2023-02-16T10:53:52.526Z,37.35
2023-02-16T10:56:22.104Z,36.22
2023-02-16T10:58:49.058Z,36.20
2023-02-16T11:01:18.886Z,38.40
2023-02-16T11:03:47.783Z,37.35
2023-02-16T11:06:15.635Z,35.05
2023-02-16T11:08:54.322Z,37.88
2023-02-16T11:11:22.932Z,38.85
2023-02-16T11:13:50.094Z,31.92
2023-02-16T11:16:21.501Z,34.03
2023-02-16T11:18:55.854Z,34.70
2023-02-16T11:21:42.541Z,34.83
2023-02-16T11:24:12.067Z,30.88
2023-02-16T11:26:39.464Z,29.30
2023-02-16T11:29:13.586Z,28.85
2023-02-16T11:31:40.757Z,29.85
2023-02-16T11:34:11.860Z,28.10
2023-02-16T11:36:46.323Z,27.60
2023-02-16T11:39:21.104Z,23.27
2023-02-16T11:41:54.837Z,28.30
2023-02-16T11:44:27.092Z,27.08
2023-02-16T11:46:55.534Z,28.23
2023-02-16T11:49:28.536Z,24.02
2023-02-16T11:51:55.787Z,28.90
2023-02-16T11:54:22.357Z,30.52
2023-02-16T11:57:09.539Z,26.77
2023-02-16T11:59:38.799Z,29.38
2023-02-16T12:02:20.739Z,28.05
2023-02-16T12:04:54.266Z,25.75
2023-02-16T12:07:29.954Z,31.48
2023-02-16T12:10:03.048Z,26.17
2023-02-16T12:12:48.177Z,24.60
2023-02-16T12:15:15.949Z,26.00
2023-02-16T12:17:54.925Z,24.92
2023-02-16T12:20:24.521Z,28.35
2023-02-16T12:22:56.828Z,26.92
2023-02-16T12:25:35.540Z,25.85
2023-02-16T12:28:05.253Z,27.00
2023-02-16T12:30:37.092Z,26.25
2023-02-16T12:33:09.506Z,24.73
2023-02-16T12:35:48.751Z,23.88
2023-02-16T12:38:33.811Z,25.35
2023-02-16T12:41:06.568Z,25.90
2023-02-16T12:43:38.957Z,25.60
2023-02-16T12:46:11.398Z,25.45
2023-02-16T12:48:40.290Z,24.52
2023-02-16T12:51:10.290Z,27.95
2023-02-16T12:53:42.140Z,21.75
2023-02-16T12:56:12.664Z,20.92
2023-02-16T12:58:45.344Z,23.65
2023-02-16T13:01:14.944Z,24.52
2023-02-16T13:03:50.301Z,22.63
2023-02-16T13:06:37.534Z,25.77
2023-02-16T13:09:07.041Z,22.55
2023-02-16T13:11:36.881Z,19.58
2023-02-16T13:14:06.436Z,20.20
2023-02-16T13:16:39.243Z,21.73
2023-02-16T13:19:05.977Z,20.95
2023-02-16T13:21:52.177Z,22.35
2023-02-16T13:24:37.600Z,17.02
2023-02-16T13:29:30.652Z,21.65
2023-02-16T13:34:43.439Z,19.58
2023-02-16T13:37:18.776Z,21.10
2023-02-16T13:39:51.302Z,22.00
2023-02-16T13:42:39.604Z,23.50
2023-02-16T13:45:19.838Z,18.63
2023-02-16T13:47:46.735Z,19.15
2023-02-16T13:50:22.357Z,20.50
2023-02-16T13:52:49.460Z,18.75
2023-02-16T13:55:35.113Z,20.23
2023-02-16T13:58:01.794Z,21.77
2023-02-16T14:00:30.634Z,24.15
2023-02-16T14:03:01.868Z,20.77
2023-02-16T14:05:30.577Z,22.80
2023-02-16T14:08:23.434Z,21.30
2023-02-16T14:10:56.163Z,19.25
2023-02-16T14:13:27.704Z,20.85
2023-02-16T14:15:56.564Z,20.20
2023-02-16T14:18:26.182Z,19.13
2023-02-16T14:21:03.922Z,18.92
2023-02-16T14:23:34.846Z,16.98
2023-02-16T14:26:06.144Z,22.63
2023-02-16T14:28:32.912Z,19.50
2023-02-16T14:31:00.833Z,16.88
2023-02-16T14:33:45.497Z,18.42
2023-02-16T14:36:12.061Z,12.23
2023-02-16T14:38:41.457Z,14.43
2023-02-16T14:41:20.361Z,14.25
2023-02-16T14:43:47.695Z,19.70
2023-02-16T14:46:17.020Z,20.45
2023-02-16T14:48:57.265Z,15.23
2023-02-16T14:51:24.064Z,21.55
2023-02-16T14:54:15.268Z,9.70
2023-02-16T14:56:45.838Z,12.13
2023-02-16T14:59:24.918Z,9.02
2023-02-16T15:01:51.646Z,9.25
2023-02-16T15:04:28.478Z,10.50
2023-02-16T15:06:57.108Z,13.80
2023-02-16T15:09:29.304Z,9.50
2023-02-16T15:12:15.988Z,13.43
2023-02-16T15:14:45.295Z,10.35
2023-02-16T15:17:18.888Z,11.07
2023-02-16T15:19:45.682Z,11.00
2023-02-16T15:22:23.097Z,10.55
2023-02-16T15:24:59.974Z,10.18
2023-02-16T15:27:27.044Z,8.98
2023-02-16T15:30:06.808Z,9.90
2023-02-16T15:32:33.644Z,7.15
2023-02-16T15:35:08.764Z,8.38
2023-02-16T15:37:37.882Z,10.55
2023-02-16T15:40:30.935Z,11.90
2023-02-16T15:43:01.868Z,8.35
2023-02-16T15:45:33.120Z,8.63
2023-02-16T15:48:16.403Z,10.43
2023-02-16T15:50:43.615Z,12.57
2023-02-16T15:53:14.441Z,10.52
2023-02-16T15:55:42.347Z,9.65
2023-02-16T15:58:08.921Z,10.20
2023-02-16T16:00:36.002Z,12.73
2023-02-16T16:03:08.640Z,10.05
2023-02-16T16:05:36.649Z,10.85
2023-02-16T16:08:03.422Z,11.45
2023-02-16T16:10:35.785Z,15.25
2023-02-16T16:13:06.704Z,7.97
2023-02-16T16:15:40.369Z,10.27
2023-02-16T16:18:27.039Z,10.68
2023-02-16T16:20:59.861Z,10.45
2023-02-16T16:23:27.142Z,9.05
2023-02-16T16:25:54.033Z,9.98
2023-02-16T16:28:27.250Z,11.20
2023-02-16T16:31:09.592Z,11.60
2023-02-16T16:34:11.629Z,9.52
2023-02-16T16:36:38.134Z,11.95
2023-02-16T16:39:10.302Z,9.77
2023-02-16T16:41:36.844Z,10.25
2023-02-16T16:44:03.466Z,12.48
2023-02-16T16:46:30.654Z,11.30
2023-02-16T16:49:03.361Z,10.25
2023-02-16T16:51:32.969Z,10.98
2023-02-16T16:54:25.426Z,12.00
2023-02-16T16:56:52.429Z,9.43
2023-02-16T16:59:18.840Z,11.40
2023-02-16T17:01:46.500Z,8.00
2023-02-16T17:04:13.109Z,7.68
2023-02-16T17:06:39.828Z,9.70
2023-02-16T17:09:06.802Z,9.77
2023-02-16T17:11:34.729Z,8.80
2023-02-16T17:14:10.289Z,9.85
2023-02-16T17:16:38.131Z,9.90
2023-02-16T17:19:04.730Z,11.57
2023-02-16T17:21:31.843Z,11.48
2023-02-16T17:23:58.441Z,9.43
2023-02-16T17:26:24.956Z,8.98
2023-02-16T17:28:51.753Z,8.10
2023-02-16T17:31:18.418Z,8.30
2023-02-16T17:33:45.072Z,9.43
2023-02-16T17:36:13.866Z,9.18
2023-02-16T17:38:40.476Z,8.50
2023-02-16T17:41:07.180Z,8.50
2023-02-16T17:43:33.634Z,7.10
2023-02-16T17:46:04.879Z,7.78
2023-02-16T17:48:32.062Z,8.80
2023-02-16T17:50:58.714Z,7.80
2023-02-16T17:53:26.534Z,8.40
2023-02-16T17:55:53.997Z,7.72
2023-02-16T17:58:21.340Z,7.32
2023-02-16T18:00:47.986Z,7.85
2023-02-16T18:03:14.566Z,6.30
2023-02-16T18:05:41.292Z,6.55
2023-02-16T18:08:07.913Z,9.23
2023-02-16T18:10:38.763Z,5.80
2023-02-16T18:13:06.182Z,4.88
2023-02-16T18:15:33.163Z,4.53
2023-02-16T18:18:00.174Z,4.75
2023-02-16T18:20:27.283Z,4.00
2023-02-16T18:22:53.937Z,3.75
2023-02-16T18:25:20.579Z,5.18
2023-02-16T18:27:47.602Z,5.28
2023-02-16T18:30:15.190Z,4.97
2023-02-16T18:32:42.203Z,6.75
2023-02-16T18:35:09.245Z,5.43
2023-02-16T18:37:35.833Z,4.45
2023-02-16T18:40:06.394Z,5.43
2023-02-16T18:42:33.328Z,6.47
2023-02-16T18:44:59.878Z,5.28
2023-02-16T18:47:26.555Z,3.60
2023-02-16T18:49:53.114Z,5.53
2023-02-16T18:52:20.326Z,4.65
2023-02-16T18:54:46.900Z,5.22
2023-02-16T18:57:13.840Z,6.00
2023-02-16T18:59:40.358Z,5.80
2023-02-16T19:02:07.740Z,6.28
2023-02-16T19:04:34.456Z,5.45
2023-02-16T19:07:00.956Z,5.40
2023-02-16T19:09:27.430Z,6.75
2023-02-16T19:11:54.341Z,7.60
2023-02-16T19:14:20.985Z,5.93
2023-02-16T19:16:47.798Z,8.00
2023-02-16T19:19:14.455Z,5.10
2023-02-16T19:21:41.212Z,6.63
2023-02-16T19:24:07.886Z,4.28
2023-02-16T19:26:34.508Z,7.05
2023-02-16T19:29:01.019Z,5.95
2023-02-16T19:31:29.667Z,5.53
2023-02-16T19:33:57.079Z,8.63
2023-02-16T19:36:24.159Z,6.53
2023-02-16T19:38:50.719Z,7.07
2023-02-16T19:41:25.451Z,5.35
2023-02-16T19:43:52.063Z,6.00
2023-02-16T19:46:19.034Z,7.82
2023-02-16T19:48:48.521Z,7.57
2023-02-16T19:51:15.407Z,8.82
2023-02-16T19:53:42.705Z,10.55
2023-02-16T19:56:13.830Z,6.80
2023-02-16T19:58:40.421Z,9.05
2023-02-16T20:01:11.252Z,11.13
2023-02-16T20:03:38.069Z,9.55
2023-02-16T20:06:18.299Z,6.45
2023-02-16T20:08:45.635Z,7.82
2023-02-16T20:11:12.303Z,7.75
2023-02-16T20:13:39.090Z,6.38
2023-02-16T20:16:07.186Z,7.43
2023-02-16T20:18:34.563Z,8.65
2023-02-16T20:21:02.172Z,6.97
2023-02-16T20:23:29.613Z,8.18
2023-02-16T20:25:56.556Z,7.53
2023-02-16T20:28:23.857Z,7.15
2023-02-16T20:30:51.399Z,8.45
2023-02-16T20:33:19.616Z,10.70
2023-02-16T20:35:46.708Z,8.85
2023-02-16T20:38:40.209Z,10.32
2023-02-16T20:41:06.788Z,8.30
2023-02-16T20:43:34.124Z,9.20
2023-02-16T20:46:04.840Z,9.23
2023-02-16T20:48:31.805Z,8.15
2023-02-16T20:50:59.465Z,9.43
2023-02-16T20:53:26.408Z,12.32
2023-02-16T20:56:00.352Z,11.75
2023-02-16T20:58:26.925Z,12.30
2023-02-16T21:00:53.630Z,9.43
2023-02-16T21:03:20.471Z,13.55
2023-02-16T21:05:46.957Z,11.02
2023-02-16T21:08:13.911Z,10.82
2023-02-16T21:10:40.606Z,8.63
2023-02-16T21:13:07.338Z,11.13
2023-02-16T21:15:34.025Z,9.68
2023-02-16T21:18:00.545Z,8.45
2023-02-16T21:20:27.298Z,6.05
2023-02-16T21:22:54.689Z,9.57
2023-02-16T21:25:21.127Z,7.32
2023-02-16T21:27:47.652Z,9.38
2023-02-16T21:30:14.483Z,6.80
2023-02-16T21:32:41.038Z,8.52
2023-02-16T21:35:07.808Z,6.80
2023-02-16T21:37:35.338Z,6.78
2023-02-16T21:40:20.722Z,7.45
2023-02-16T21:42:47.296Z,8.07
2023-02-16T21:45:13.894Z,5.78
2023-02-16T21:48:00.003Z,5.30
2023-02-16T21:50:27.270Z,11.45
2023-02-16T21:52:53.907Z,9.25
2023-02-16T21:55:55.639Z,7.05
2023-02-16T21:58:22.579Z,8.38
2023-02-16T22:00:49.950Z,8.45
2023-02-16T22:03:16.734Z,10.40
2023-02-16T22:05:43.674Z,6.75
2023-02-16T22:08:11.102Z,10.98
2023-02-16T22:10:39.194Z,7.85
2023-02-16T22:13:05.878Z,8.30
2023-02-16T22:15:34.921Z,7.70
2023-02-16T22:18:01.544Z,7.45
2023-02-16T22:20:28.117Z,7.90
2023-02-16T22:22:54.731Z,7.43
2023-02-16T22:25:23.252Z,9.65
2023-02-16T22:27:50.332Z,12.95
2023-02-16T22:30:17.047Z,9.15
2023-02-16T22:32:43.750Z,13.15
2023-02-16T22:35:10.278Z,10.15
2023-02-16T22:37:36.882Z,9.43
2023-02-16T22:40:03.802Z,12.32
2023-02-16T22:42:31.661Z,14.23
2023-02-16T22:44:58.190Z,14.98
2023-02-16T22:47:24.803Z,14.50
2023-02-16T22:49:51.605Z,17.25
2023-02-16T22:52:18.306Z,17.75
2023-02-16T22:54:44.884Z,17.67
2023-02-16T22:57:11.415Z,19.48
2023-02-16T22:59:37.927Z,22.20
2023-02-16T23:02:04.553Z,23.30
2023-02-16T23:04:31.168Z,26.58
2023-02-16T23:06:57.803Z,22.05
2023-02-16T23:09:24.352Z,24.02
2023-02-16T23:11:51.198Z,27.63
2023-02-16T23:14:18.153Z,23.60
2023-02-16T23:16:49.065Z,24.42
2023-02-16T23:19:17.736Z,24.98
2023-02-16T23:21:44.640Z,22.90
2023-02-16T23:24:15.828Z,27.10
2023-02-16T23:26:42.518Z,28.65
2023-02-16T23:29:09.426Z,26.48
2023-02-16T23:31:36.990Z,26.73
2023-02-16T23:34:04.712Z,27.98
2023-02-16T23:36:32.189Z,26.42
2023-02-16T23:38:59.571Z,27.52
2023-02-16T23:41:26.160Z,30.23
2023-02-16T23:43:52.602Z,28.42
2023-02-16T23:46:19.435Z,32.30
2023-02-16T23:48:46.014Z,31.33
2023-02-16T23:51:13.298Z,31.27
2023-02-16T23:53:40.091Z,25.27
2023-02-16T23:56:08.270Z,23.60
2023-02-16T23:58:36.517Z,28.48
